Pireps
You are here: Olympic Virtual Pireps

Flight OLY10039

  • Submitted By: Michalis Papastavros
  • Departure Airport: SHEREMETYEVO (UUEE)
  • Arrival Airport: VANTAA (EFHK)
  • Aircraft: SHORT 330 (SX-DYI)
  • Flight Time: 03.51
  • Date Submitted: 26/05/2018
  • Route: No Route Available
  • Status: Accepted
Flight Details
Gross Revenue:
(22 load / € 118.00 per unit
€ 2, 596.00
Fuel Cost:
(752 fuel used @ 0.19 / unit)
€ 142.88

Additional Log Information:

View Log

Aircraft Used in flight is Aerosoft DHC-6 Series 300 Winair (PJ-WII)
16:58 Boarding
16:58 Brakes are On
17:09 Engine 2 Started
17:09 Engine 1 Started
17:09 Beacon lights are off and engine is started
17:09 Taxi Lights ON at 630 Feet
17:09 Navigation Lights ON at 630 Feet
17:09 Beacon Lights ON at 630 Feet
17:12 Flaps 1 Selected at 630ft and 0kts
17:13 Brakes are Released
17:13 Pushing back
17:35 Landing Lights ON at 630 AGL
17:35 Flaps 0 Selected at 630ft and 0kts
17:35 Flaps 1 Selected at 630ft and 0kts
17:36 Strobe Lights ON at 630 Feet
17:39 You Took off @ 99 Knots and Flaps at Position 1 With a heading of 254 Degrees
Departure Weather UUEE 261400Z 25003G08MPS 200V330 CAVOK 20/03 Q1031 R24C/CLRD62 R24L/CLRD62 NOSIG
Departure Coordinates 55.9740761326129/ 37.4338257510417
Takeoff Weight=4941KG Fuel Weight=1305KG
17:39 TOC Reached
17:42 Flaps 0 Selected at 3490ft and 109kts
17:48 Above FL100 you need to switch of the landing lights
17:48 Landing Lights OFF at 10200 AGL
19:27 Taxi Lights OFF at 8960 Feet
20:17 Landing Lights ON at 8970 AGL
20:18 Taxi Lights ON at 7640 Feet
20:29 Flaps 1 Selected at 2980ft and 96kts
20:38 Flaps 2 Selected at 2560ft and 79kts
20:38 Flaps 3 Selected at 2480ft and 74kts
20:41 Flaps 4 Selected at 1580ft and 78kts
20:41 Flaps 3 Selected at 1440ft and 77kts
20:41 Flaps 4 Selected at 1430ft and 78kts
20:45 You Landed @ 55 Knots with -210 Vertical Speed With a heading of 220 and with 1.8832 G Force
Arrival Weather: EFHK 261720Z 19009KT CAVOK 20/07 Q1026 NOSIG
Arrival Coordinates 60.3291876735969/ 24.9758017727347
Landing Weight=4217KG Fuel Weight=581KG
20:45 Taxiing to gate
20:45 Paused
20:46 Flaps 3 Selected at 190ft and 18kts
20:46 Flaps 2 Selected at 190ft and 18kts
20:46 Flaps 1 Selected at 190ft and 18kts
20:46 Flaps 0 Selected at 190ft and 18kts
20:48 Brakes are On
20:48 Unpaused
20:49 Airplane Bounced
20:49 Flaps 4 Selected at 320ft and 66kts
20:50 Taxiing to gate
20:50 Flaps 0 Selected at 190ft and 0kts
20:50 Brakes are Released
20:50 Brakes are On
Pirep logged with OA Virtual Tracking 1.0.2.6

Route Map